sensor_id;sensor_type;location;lat;lon;timestamp;P1;durP1;ratioP1;P2;durP2;ratioP2
59161;SDS011;44942;48.936;8.260;2022-11-06T00:04:28;8.33;;;6.43;;
59161;SDS011;44942;48.936;8.260;2022-11-06T00:09:29;9.85;;;7.18;;
59161;SDS011;44942;48.936;8.260;2022-11-06T00:14:30;8.50;;;6.87;;
59161;SDS011;44942;48.936;8.260;2022-11-06T00:19:30;9.43;;;6.73;;
59161;SDS011;44942;48.936;8.260;2022-11-06T00:24:31;9.27;;;7.27;;
59161;SDS011;44942;48.936;8.260;2022-11-06T00:29:31;8.87;;;6.53;;
59161;SDS011;44942;48.936;8.260;2022-11-06T00:34:57;7.45;;;6.15;;
59161;SDS011;44942;48.936;8.260;2022-11-06T00:40:24;9.82;;;6.70;;
59161;SDS011;44942;48.936;8.260;2022-11-06T00:45:24;9.87;;;7.10;;
59161;SDS011;44942;48.936;8.260;2022-11-06T00:50:25;8.37;;;6.57;;
59161;SDS011;44942;48.936;8.260;2022-11-06T00:55:26;8.18;;;6.22;;
59161;SDS011;44942;48.936;8.260;2022-11-06T01:00:26;8.60;;;6.33;;
59161;SDS011;44942;48.936;8.260;2022-11-06T01:05:53;9.05;;;6.32;;
59161;SDS011;44942;48.936;8.260;2022-11-06T01:11:20;7.15;;;5.63;;
59161;SDS011;44942;48.936;8.260;2022-11-06T01:16:48;7.65;;;5.82;;
59161;SDS011;44942;48.936;8.260;2022-11-06T01:21:49;7.05;;;5.65;;
59161;SDS011;44942;48.936;8.260;2022-11-06T01:26:52;7.90;;;5.40;;
59161;SDS011;44942;48.936;8.260;2022-11-06T01:31:53;9.32;;;5.68;;
59161;SDS011;44942;48.936;8.260;2022-11-06T01:36:53;6.63;;;5.70;;
59161;SDS011;44942;48.936;8.260;2022-11-06T01:41:54;7.00;;;5.77;;
59161;SDS011;44942;48.936;8.260;2022-11-06T01:46:55;7.60;;;5.70;;
59161;SDS011;44942;48.936;8.260;2022-11-06T01:51:56;6.33;;;5.37;;
59161;SDS011;44942;48.936;8.260;2022-11-06T01:57:01;6.25;;;5.18;;
59161;SDS011;44942;48.936;8.260;2022-11-06T02:02:03;5.90;;;4.60;;
59161;SDS011;44942;48.936;8.260;2022-11-06T02:07:04;6.70;;;4.93;;
59161;SDS011;44942;48.936;8.260;2022-11-06T02:17:34;6.38;;;4.90;;
59161;SDS011;44942;48.936;8.260;2022-11-06T02:27:57;5.60;;;4.63;;
59161;SDS011;44942;48.936;8.260;2022-11-06T02:33:07;5.03;;;3.47;;
59161;SDS011;44942;48.936;8.260;2022-11-06T02:43:22;6.13;;;4.68;;
59161;SDS011;44942;48.936;8.260;2022-11-06T02:48:30;6.32;;;4.70;;
59161;SDS011;44942;48.936;8.260;2022-11-06T02:53:36;6.05;;;4.85;;
59161;SDS011;44942;48.936;8.260;2022-11-06T02:58:50;5.97;;;4.43;;
59161;SDS011;44942;48.936;8.260;2022-11-06T03:03:54;5.30;;;4.57;;
59161;SDS011;44942;48.936;8.260;2022-11-06T03:09:07;5.00;;;4.45;;
59161;SDS011;44942;48.936;8.260;2022-11-06T03:35:43;4.53;;;3.92;;
59161;SDS011;44942;48.936;8.260;2022-11-06T03:41:04;5.00;;;4.38;;
59161;SDS011;44942;48.936;8.260;2022-11-06T03:46:18;5.25;;;3.90;;
59161;SDS011;44942;48.936;8.260;2022-11-06T03:51:25;5.05;;;4.07;;
59161;SDS011;44942;48.936;8.260;2022-11-06T03:56:39;4.63;;;3.70;;
59161;SDS011;44942;48.936;8.260;2022-11-06T04:01:54;4.57;;;3.80;;
59161;SDS011;44942;48.936;8.260;2022-11-06T04:12:04;4.38;;;3.50;;
59161;SDS011;44942;48.936;8.260;2022-11-06T04:17:27;5.30;;;4.22;;
59161;SDS011;44942;48.936;8.260;2022-11-06T04:22:35;4.80;;;3.80;;
59161;SDS011;44942;48.936;8.260;2022-11-06T04:33:21;6.80;;;3.85;;
59161;SDS011;44942;48.936;8.260;2022-11-06T04:38:39;5.53;;;3.45;;
59161;SDS011;44942;48.936;8.260;2022-11-06T04:44:08;4.13;;;3.72;;
59161;SDS011;44942;48.936;8.260;2022-11-06T04:49:14;4.13;;;3.58;;
59161;SDS011;44942;48.936;8.260;2022-11-06T04:54:16;5.25;;;3.95;;
59161;SDS011;44942;48.936;8.260;2022-11-06T04:59:17;4.38;;;3.80;;
59161;SDS011;44942;48.936;8.260;2022-11-06T05:04:18;3.90;;;3.50;;
59161;SDS011;44942;48.936;8.260;2022-11-06T05:09:18;4.57;;;3.47;;
59161;SDS011;44942;48.936;8.260;2022-11-06T05:14:19;4.80;;;3.67;;
59161;SDS011;44942;48.936;8.260;2022-11-06T05:19:19;4.20;;;3.80;;
59161;SDS011;44942;48.936;8.260;2022-11-06T05:24:20;4.50;;;3.80;;
59161;SDS011;44942;48.936;8.260;2022-11-06T05:29:21;4.83;;;3.53;;
59161;SDS011;44942;48.936;8.260;2022-11-06T05:34:21;3.90;;;3.50;;
59161;SDS011;44942;48.936;8.260;2022-11-06T05:39:22;4.23;;;3.83;;
59161;SDS011;44942;48.936;8.260;2022-11-06T05:44:22;3.83;;;3.40;;
59161;SDS011;44942;48.936;8.260;2022-11-06T05:49:23;4.83;;;3.63;;
59161;SDS011;44942;48.936;8.260;2022-11-06T05:54:24;5.97;;;3.60;;
59161;SDS011;44942;48.936;8.260;2022-11-06T05:59:24;4.10;;;3.67;;
59161;SDS011;44942;48.936;8.260;2022-11-06T06:04:25;3.97;;;3.30;;
59161;SDS011;44942;48.936;8.260;2022-11-06T06:09:25;3.83;;;3.43;;
59161;SDS011;44942;48.936;8.260;2022-11-06T06:14:26;8.33;;;3.30;;
59161;SDS011;44942;48.936;8.260;2022-11-06T06:19:26;3.83;;;3.20;;
59161;SDS011;44942;48.936;8.260;2022-11-06T06:24:27;4.50;;;3.40;;
59161;SDS011;44942;48.936;8.260;2022-11-06T06:29:27;3.60;;;3.30;;
59161;SDS011;44942;48.936;8.260;2022-11-06T06:34:28;3.87;;;3.50;;
59161;SDS011;44942;48.936;8.260;2022-11-06T06:39:29;5.90;;;3.20;;
59161;SDS011;44942;48.936;8.260;2022-11-06T06:44:30;3.60;;;3.30;;
59161;SDS011;44942;48.936;8.260;2022-11-06T06:49:30;4.30;;;3.20;;
59161;SDS011;44942;48.936;8.260;2022-11-06T06:54:31;3.70;;;3.27;;
59161;SDS011;44942;48.936;8.260;2022-11-06T06:59:32;3.70;;;3.20;;
59161;SDS011;44942;48.936;8.260;2022-11-06T07:04:32;5.37;;;3.50;;
59161;SDS011;44942;48.936;8.260;2022-11-06T07:09:33;3.50;;;3.20;;
59161;SDS011;44942;48.936;8.260;2022-11-06T07:14:33;3.20;;;3.00;;
59161;SDS011;44942;48.936;8.260;2022-11-06T07:19:34;3.50;;;3.20;;
59161;SDS011;44942;48.936;8.260;2022-11-06T07:24:34;3.03;;;2.80;;
59161;SDS011;44942;48.936;8.260;2022-11-06T07:29:35;3.40;;;3.10;;
59161;SDS011;44942;48.936;8.260;2022-11-06T07:34:35;4.27;;;3.57;;
59161;SDS011;44942;48.936;8.260;2022-11-06T07:39:39;4.53;;;3.35;;
59161;SDS011;44942;48.936;8.260;2022-11-06T07:44:39;4.50;;;3.50;;
59161;SDS011;44942;48.936;8.260;2022-11-06T07:49:40;6.20;;;4.07;;
59161;SDS011;44942;48.936;8.260;2022-11-06T07:54:40;16.10;;;6.37;;
59161;SDS011;44942;48.936;8.260;2022-11-06T07:59:41;25.20;;;8.17;;
59161;SDS011;44942;48.936;8.260;2022-11-06T08:04:42;16.10;;;7.90;;
59161;SDS011;44942;48.936;8.260;2022-11-06T08:09:42;17.07;;;8.93;;
59161;SDS011;44942;48.936;8.260;2022-11-06T08:14:43;15.50;;;9.23;;
59161;SDS011;44942;48.936;8.260;2022-11-06T08:19:44;14.17;;;8.40;;
59161;SDS011;44942;48.936;8.260;2022-11-06T08:24:44;22.67;;;9.30;;
59161;SDS011;44942;48.936;8.260;2022-11-06T08:29:45;19.53;;;9.27;;
59161;SDS011;44942;48.936;8.260;2022-11-06T08:34:45;19.47;;;9.60;;
59161;SDS011;44942;48.936;8.260;2022-11-06T08:39:46;18.50;;;9.47;;
59161;SDS011;44942;48.936;8.260;2022-11-06T08:44:47;17.00;;;10.10;;
59161;SDS011;44942;48.936;8.260;2022-11-06T08:49:47;15.40;;;8.80;;
59161;SDS011;44942;48.936;8.260;2022-11-06T08:54:48;14.50;;;8.37;;
59161;SDS011;44942;48.936;8.260;2022-11-06T08:59:48;25.20;;;8.97;;
59161;SDS011;44942;48.936;8.260;2022-11-06T09:04:49;21.40;;;8.67;;
59161;SDS011;44942;48.936;8.260;2022-11-06T09:09:49;23.93;;;9.40;;
59161;SDS011;44942;48.936;8.260;2022-11-06T09:14:50;18.33;;;8.83;;
59161;SDS011;44942;48.936;8.260;2022-11-06T09:19:50;23.03;;;9.23;;
59161;SDS011;44942;48.936;8.260;2022-11-06T09:24:51;7.80;;;6.97;;
59161;SDS011;44942;48.936;8.260;2022-11-06T09:29:52;5.77;;;5.17;;
59161;SDS011;44942;48.936;8.260;2022-11-06T09:34:53;6.00;;;5.40;;
59161;SDS011;44942;48.936;8.260;2022-11-06T09:39:53;11.27;;;5.37;;
59161;SDS011;44942;48.936;8.260;2022-11-06T09:50:03;7.28;;;4.07;;
59161;SDS011;44942;48.936;8.260;2022-11-06T09:55:16;8.90;;;5.22;;
59161;SDS011;44942;48.936;8.260;2022-11-06T10:00:20;11.35;;;6.20;;
59161;SDS011;44942;48.936;8.260;2022-11-06T10:05:31;8.33;;;5.70;;
59161;SDS011;44942;48.936;8.260;2022-11-06T10:16:08;8.75;;;5.45;;
59161;SDS011;44942;48.936;8.260;2022-11-06T10:21:23;12.05;;;5.10;;
59161;SDS011;44942;48.936;8.260;2022-11-06T10:26:32;6.40;;;4.95;;
59161;SDS011;44942;48.936;8.260;2022-11-06T10:36:48;14.40;;;5.43;;
59161;SDS011;44942;48.936;8.260;2022-11-06T10:42:14;8.73;;;4.97;;
59161;SDS011;44942;48.936;8.260;2022-11-06T10:47:26;8.05;;;4.85;;
59161;SDS011;44942;48.936;8.260;2022-11-06T10:58:12;5.50;;;4.30;;
59161;SDS011;44942;48.936;8.260;2022-11-06T11:03:25;11.10;;;4.65;;
59161;SDS011;44942;48.936;8.260;2022-11-06T11:08:45;11.13;;;4.78;;
59161;SDS011;44942;48.936;8.260;2022-11-06T11:19:15;11.88;;;4.82;;
59161;SDS011;44942;48.936;8.260;2022-11-06T11:24:37;9.00;;;5.05;;
59161;SDS011;44942;48.936;8.260;2022-11-06T11:30:10;6.85;;;4.43;;
59161;SDS011;44942;48.936;8.260;2022-11-06T11:35:26;10.60;;;4.60;;
59161;SDS011;44942;48.936;8.260;2022-11-06T11:40:33;7.70;;;4.88;;
59161;SDS011;44942;48.936;8.260;2022-11-06T11:45:35;7.70;;;4.75;;
59161;SDS011;44942;48.936;8.260;2022-11-06T11:50:35;7.13;;;4.80;;
59161;SDS011;44942;48.936;8.260;2022-11-06T11:55:37;6.07;;;4.53;;
59161;SDS011;44942;48.936;8.260;2022-11-06T12:00:46;7.63;;;4.45;;
59161;SDS011;44942;48.936;8.260;2022-11-06T12:06:04;5.97;;;3.92;;
59161;SDS011;44942;48.936;8.260;2022-11-06T12:11:11;6.03;;;4.43;;
59161;SDS011;44942;48.936;8.260;2022-11-06T12:16:18;7.13;;;4.20;;
59161;SDS011;44942;48.936;8.260;2022-11-06T12:21:29;6.65;;;4.38;;
59161;SDS011;44942;48.936;8.260;2022-11-06T12:37:50;5.95;;;4.60;;
59161;SDS011;44942;48.936;8.260;2022-11-06T12:43:03;7.15;;;4.40;;
59161;SDS011;44942;48.936;8.260;2022-11-06T12:53:50;9.27;;;4.40;;
59161;SDS011;44942;48.936;8.260;2022-11-06T12:59:27;7.93;;;4.28;;
59161;SDS011;44942;48.936;8.260;2022-11-06T13:10:32;7.65;;;4.63;;
59161;SDS011;44942;48.936;8.260;2022-11-06T13:15:53;10.32;;;5.85;;
59161;SDS011;44942;48.936;8.260;2022-11-06T13:21:05;17.58;;;9.77;;
59161;SDS011;44942;48.936;8.260;2022-11-06T13:31:20;13.33;;;8.57;;
59161;SDS011;44942;48.936;8.260;2022-11-06T13:36:25;16.30;;;8.38;;
59161;SDS011;44942;48.936;8.260;2022-11-06T13:41:27;15.48;;;8.30;;
59161;SDS011;44942;48.936;8.260;2022-11-06T13:46:38;16.23;;;8.23;;
59161;SDS011;44942;48.936;8.260;2022-11-06T13:51:52;13.77;;;9.48;;
59161;SDS011;44942;48.936;8.260;2022-11-06T14:07:52;12.40;;;7.75;;
59161;SDS011;44942;48.936;8.260;2022-11-06T14:12:55;12.00;;;7.38;;
59161;SDS011;44942;48.936;8.260;2022-11-06T14:17:56;12.48;;;7.70;;
59161;SDS011;44942;48.936;8.260;2022-11-06T14:28:34;11.20;;;8.07;;
59161;SDS011;44942;48.936;8.260;2022-11-06T14:38:40;11.68;;;7.47;;
59161;SDS011;44942;48.936;8.260;2022-11-06T14:43:41;11.38;;;7.45;;
59161;SDS011;44942;48.936;8.260;2022-11-06T14:48:51;10.40;;;7.10;;
59161;SDS011;44942;48.936;8.260;2022-11-06T14:53:58;10.27;;;7.05;;
59161;SDS011;44942;48.936;8.260;2022-11-06T14:59:03;13.38;;;7.70;;
59161;SDS011;44942;48.936;8.260;2022-11-06T15:04:18;11.63;;;7.35;;
59161;SDS011;44942;48.936;8.260;2022-11-06T15:19:26;13.23;;;9.07;;
59161;SDS011;44942;48.936;8.260;2022-11-06T15:24:35;10.55;;;7.00;;
59161;SDS011;44942;48.936;8.260;2022-11-06T15:29:41;11.50;;;7.45;;
59161;SDS011;44942;48.936;8.260;2022-11-06T15:40:05;10.85;;;7.35;;
59161;SDS011;44942;48.936;8.260;2022-11-06T15:45:22;10.20;;;7.00;;
59161;SDS011;44942;48.936;8.260;2022-11-06T15:50:26;9.55;;;6.80;;
59161;SDS011;44942;48.936;8.260;2022-11-06T15:55:28;11.52;;;6.70;;
59161;SDS011;44942;48.936;8.260;2022-11-06T16:00:35;11.52;;;8.25;;
59161;SDS011;44942;48.936;8.260;2022-11-06T16:05:40;12.65;;;8.20;;
59161;SDS011;44942;48.936;8.260;2022-11-06T16:10:41;10.93;;;7.55;;
59161;SDS011;44942;48.936;8.260;2022-11-06T16:15:54;9.98;;;7.18;;
59161;SDS011;44942;48.936;8.260;2022-11-06T16:21:00;14.07;;;7.85;;
59161;SDS011;44942;48.936;8.260;2022-11-06T16:26:11;9.15;;;7.20;;
59161;SDS011;44942;48.936;8.260;2022-11-06T16:31:15;10.85;;;7.57;;
59161;SDS011;44942;48.936;8.260;2022-11-06T16:36:18;10.77;;;7.60;;
59161;SDS011;44942;48.936;8.260;2022-11-06T16:41:19;10.03;;;7.47;;
59161;SDS011;44942;48.936;8.260;2022-11-06T16:51:59;13.85;;;7.97;;
59161;SDS011;44942;48.936;8.260;2022-11-06T16:57:07;10.07;;;7.05;;
59161;SDS011;44942;48.936;8.260;2022-11-06T17:02:18;9.43;;;6.82;;
59161;SDS011;44942;48.936;8.260;2022-11-06T17:07:21;10.10;;;6.95;;
59161;SDS011;44942;48.936;8.260;2022-11-06T17:12:22;9.07;;;6.73;;
59161;SDS011;44942;48.936;8.260;2022-11-06T17:17:23;10.03;;;7.13;;
59161;SDS011;44942;48.936;8.260;2022-11-06T17:22:24;13.15;;;8.48;;
59161;SDS011;44942;48.936;8.260;2022-11-06T17:27:25;14.60;;;7.00;;
59161;SDS011;44942;48.936;8.260;2022-11-06T17:32:26;9.83;;;6.97;;
59161;SDS011;44942;48.936;8.260;2022-11-06T17:37:26;9.53;;;6.83;;
59161;SDS011;44942;48.936;8.260;2022-11-06T17:42:27;8.07;;;6.57;;
59161;SDS011;44942;48.936;8.260;2022-11-06T17:47:27;11.30;;;7.97;;
59161;SDS011;44942;48.936;8.260;2022-11-06T17:52:28;10.70;;;7.27;;
59161;SDS011;44942;48.936;8.260;2022-11-06T17:57:29;11.05;;;7.35;;
59161;SDS011;44942;48.936;8.260;2022-11-06T18:02:30;10.00;;;7.65;;
59161;SDS011;44942;48.936;8.260;2022-11-06T18:07:31;10.93;;;7.30;;
59161;SDS011;44942;48.936;8.260;2022-11-06T18:12:32;9.00;;;6.80;;
59161;SDS011;44942;48.936;8.260;2022-11-06T18:17:32;9.43;;;7.10;;
59161;SDS011;44942;48.936;8.260;2022-11-06T18:22:36;8.80;;;6.77;;
59161;SDS011;44942;48.936;8.260;2022-11-06T18:27:37;9.13;;;6.90;;
59161;SDS011;44942;48.936;8.260;2022-11-06T18:32:37;8.20;;;6.60;;
59161;SDS011;44942;48.936;8.260;2022-11-06T18:37:38;8.47;;;6.07;;
59161;SDS011;44942;48.936;8.260;2022-11-06T18:42:38;7.13;;;5.90;;
59161;SDS011;44942;48.936;8.260;2022-11-06T18:47:39;8.00;;;6.03;;
59161;SDS011;44942;48.936;8.260;2022-11-06T18:52:40;7.97;;;5.50;;
59161;SDS011;44942;48.936;8.260;2022-11-06T18:57:40;7.40;;;6.03;;
59161;SDS011;44942;48.936;8.260;2022-11-06T19:02:41;7.77;;;5.60;;
59161;SDS011;44942;48.936;8.260;2022-11-06T19:07:41;7.37;;;5.60;;
59161;SDS011;44942;48.936;8.260;2022-11-06T19:12:42;7.87;;;6.00;;
59161;SDS011;44942;48.936;8.260;2022-11-06T19:17:43;7.10;;;5.43;;
59161;SDS011;44942;48.936;8.260;2022-11-06T19:22:43;12.63;;;5.80;;
59161;SDS011;44942;48.936;8.260;2022-11-06T19:27:48;17.67;;;5.85;;
59161;SDS011;44942;48.936;8.260;2022-11-06T19:32:52;10.82;;;5.78;;
59161;SDS011;44942;48.936;8.260;2022-11-06T19:37:53;7.80;;;5.90;;
59161;SDS011;44942;48.936;8.260;2022-11-06T19:42:55;15.13;;;6.10;;
59161;SDS011;44942;48.936;8.260;2022-11-06T19:47:58;9.13;;;5.50;;
59161;SDS011;44942;48.936;8.260;2022-11-06T19:52:58;6.50;;;4.97;;
59161;SDS011;44942;48.936;8.260;2022-11-06T19:57:59;11.40;;;5.83;;
59161;SDS011;44942;48.936;8.260;2022-11-06T20:03:00;7.87;;;6.13;;
59161;SDS011;44942;48.936;8.260;2022-11-06T20:08:00;9.97;;;5.70;;
59161;SDS011;44942;48.936;8.260;2022-11-06T20:13:01;8.33;;;5.47;;
59161;SDS011;44942;48.936;8.260;2022-11-06T20:23:03;9.27;;;6.43;;
59161;SDS011;44942;48.936;8.260;2022-11-06T20:28:04;11.47;;;6.53;;
59161;SDS011;44942;48.936;8.260;2022-11-06T20:33:04;8.17;;;6.17;;
59161;SDS011;44942;48.936;8.260;2022-11-06T20:38:05;7.17;;;5.37;;
59161;SDS011;44942;48.936;8.260;2022-11-06T20:43:06;6.70;;;5.40;;
59161;SDS011;44942;48.936;8.260;2022-11-06T20:48:07;9.50;;;6.67;;
59161;SDS011;44942;48.936;8.260;2022-11-06T20:53:08;8.03;;;6.47;;
59161;SDS011;44942;48.936;8.260;2022-11-06T20:58:08;9.60;;;7.47;;
59161;SDS011;44942;48.936;8.260;2022-11-06T21:03:09;8.60;;;6.37;;
59161;SDS011;44942;48.936;8.260;2022-11-06T21:08:09;7.73;;;5.50;;
59161;SDS011;44942;48.936;8.260;2022-11-06T21:13:10;7.47;;;5.20;;
59161;SDS011;44942;48.936;8.260;2022-11-06T21:18:11;7.90;;;5.80;;
59161;SDS011;44942;48.936;8.260;2022-11-06T21:23:11;7.20;;;5.40;;
59161;SDS011;44942;48.936;8.260;2022-11-06T21:28:12;6.60;;;5.10;;
59161;SDS011;44942;48.936;8.260;2022-11-06T21:33:13;6.93;;;5.60;;
59161;SDS011;44942;48.936;8.260;2022-11-06T21:38:14;5.97;;;4.55;;
59161;SDS011;44942;48.936;8.260;2022-11-06T21:43:14;5.03;;;4.50;;
59161;SDS011;44942;48.936;8.260;2022-11-06T21:48:15;6.80;;;4.60;;
59161;SDS011;44942;48.936;8.260;2022-11-06T21:53:15;5.47;;;4.63;;
59161;SDS011;44942;48.936;8.260;2022-11-06T21:58:35;8.02;;;4.80;;
59161;SDS011;44942;48.936;8.260;2022-11-06T22:03:35;5.40;;;4.60;;
59161;SDS011;44942;48.936;8.260;2022-11-06T22:08:36;5.43;;;4.40;;
59161;SDS011;44942;48.936;8.260;2022-11-06T22:13:39;4.93;;;4.40;;
59161;SDS011;44942;48.936;8.260;2022-11-06T22:18:40;7.85;;;4.50;;
59161;SDS011;44942;48.936;8.260;2022-11-06T22:23:41;4.80;;;4.30;;
59161;SDS011;44942;48.936;8.260;2022-11-06T22:28:42;5.22;;;4.55;;
59161;SDS011;44942;48.936;8.260;2022-11-06T22:33:43;6.77;;;4.40;;
59161;SDS011;44942;48.936;8.260;2022-11-06T22:38:43;5.63;;;4.47;;
59161;SDS011;44942;48.936;8.260;2022-11-06T22:43:45;4.57;;;3.90;;
59161;SDS011;44942;48.936;8.260;2022-11-06T22:48:46;5.63;;;4.10;;
59161;SDS011;44942;48.936;8.260;2022-11-06T22:53:47;6.07;;;4.47;;
59161;SDS011;44942;48.936;8.260;2022-11-06T22:58:52;5.57;;;4.20;;
59161;SDS011;44942;48.936;8.260;2022-11-06T23:04:01;5.85;;;3.88;;
59161;SDS011;44942;48.936;8.260;2022-11-06T23:09:03;4.18;;;3.75;;
59161;SDS011;44942;48.936;8.260;2022-11-06T23:14:03;6.17;;;3.73;;
59161;SDS011;44942;48.936;8.260;2022-11-06T23:19:04;6.33;;;4.10;;
59161;SDS011;44942;48.936;8.260;2022-11-06T23:24:05;7.93;;;3.80;;
59161;SDS011;44942;48.936;8.260;2022-11-06T23:29:06;7.78;;;3.42;;
59161;SDS011;44942;48.936;8.260;2022-11-06T23:34:07;5.53;;;3.83;;
59161;SDS011;44942;48.936;8.260;2022-11-06T23:39:07;4.13;;;3.67;;
59161;SDS011;44942;48.936;8.260;2022-11-06T23:44:08;5.40;;;3.80;;
59161;SDS011;44942;48.936;8.260;2022-11-06T23:49:28;3.80;;;3.20;;
59161;SDS011;44942;48.936;8.260;2022-11-06T23:54:29;5.20;;;3.60;;
59161;SDS011;44942;48.936;8.260;2022-11-06T23:59:30;4.17;;;3.50;;
